sensor_id;sensor_type;location;lat;lon;timestamp;P1;durP1;ratioP1;P2;durP2;ratioP2
43048;SDS011;28673;44.412;11.918;2024-02-26T00:01:42;10.60;;;4.53;;
43048;SDS011;28673;44.412;11.918;2024-02-26T00:04:09;9.70;;;4.32;;
43048;SDS011;28673;44.412;11.918;2024-02-26T00:06:37;7.07;;;4.30;;
43048;SDS011;28673;44.412;11.918;2024-02-26T00:09:06;7.78;;;3.97;;
43048;SDS011;28673;44.412;11.918;2024-02-26T00:11:32;6.63;;;3.65;;
43048;SDS011;28673;44.412;11.918;2024-02-26T00:13:58;5.07;;;3.50;;
43048;SDS011;28673;44.412;11.918;2024-02-26T00:16:24;8.02;;;3.88;;
43048;SDS011;28673;44.412;11.918;2024-02-26T00:18:50;6.53;;;3.67;;
43048;SDS011;28673;44.412;11.918;2024-02-26T00:21:15;5.68;;;3.65;;
43048;SDS011;28673;44.412;11.918;2024-02-26T00:23:41;4.70;;;3.72;;
43048;SDS011;28673;44.412;11.918;2024-02-26T00:26:07;8.45;;;4.32;;
43048;SDS011;28673;44.412;11.918;2024-02-26T00:28:33;5.55;;;3.58;;
43048;SDS011;28673;44.412;11.918;2024-02-26T00:30:59;5.68;;;3.65;;
43048;SDS011;28673;44.412;11.918;2024-02-26T00:33:24;9.13;;;3.80;;
43048;SDS011;28673;44.412;11.918;2024-02-26T00:35:50;5.65;;;3.95;;
43048;SDS011;28673;44.412;11.918;2024-02-26T00:38:16;6.55;;;3.60;;
43048;SDS011;28673;44.412;11.918;2024-02-26T00:40:42;6.88;;;3.83;;
43048;SDS011;28673;44.412;11.918;2024-02-26T00:43:07;6.97;;;3.72;;
43048;SDS011;28673;44.412;11.918;2024-02-26T00:45:33;7.90;;;4.25;;
43048;SDS011;28673;44.412;11.918;2024-02-26T00:47:59;5.97;;;3.17;;
43048;SDS011;28673;44.412;11.918;2024-02-26T00:50:30;10.10;;;3.95;;
43048;SDS011;28673;44.412;11.918;2024-02-26T00:52:57;7.13;;;3.80;;
43048;SDS011;28673;44.412;11.918;2024-02-26T00:55:22;6.50;;;3.50;;
43048;SDS011;28673;44.412;11.918;2024-02-26T00:57:48;6.45;;;3.67;;
43048;SDS011;28673;44.412;11.918;2024-02-26T01:00:14;4.45;;;3.17;;
43048;SDS011;28673;44.412;11.918;2024-02-26T01:02:40;6.35;;;4.22;;
43048;SDS011;28673;44.412;11.918;2024-02-26T01:05:11;10.85;;;3.75;;
43048;SDS011;28673;44.412;11.918;2024-02-26T01:07:38;5.85;;;3.58;;
43048;SDS011;28673;44.412;11.918;2024-02-26T01:10:04;5.80;;;3.20;;
43048;SDS011;28673;44.412;11.918;2024-02-26T01:12:32;6.75;;;3.75;;
43048;SDS011;28673;44.412;11.918;2024-02-26T01:14:58;8.18;;;3.70;;
43048;SDS011;28673;44.412;11.918;2024-02-26T01:17:24;7.15;;;3.67;;
43048;SDS011;28673;44.412;11.918;2024-02-26T01:19:49;10.23;;;4.25;;
43048;SDS011;28673;44.412;11.918;2024-02-26T01:22:15;5.50;;;3.63;;
43048;SDS011;28673;44.412;11.918;2024-02-26T01:24:41;7.43;;;4.65;;
43048;SDS011;28673;44.412;11.918;2024-02-26T01:27:06;8.02;;;4.07;;
43048;SDS011;28673;44.412;11.918;2024-02-26T01:29:34;5.13;;;3.17;;
43048;SDS011;28673;44.412;11.918;2024-02-26T01:32:00;8.35;;;4.05;;
43048;SDS011;28673;44.412;11.918;2024-02-26T01:34:27;6.47;;;3.75;;
43048;SDS011;28673;44.412;11.918;2024-02-26T01:36:53;5.20;;;3.10;;
43048;SDS011;28673;44.412;11.918;2024-02-26T01:39:21;4.30;;;3.15;;
43048;SDS011;28673;44.412;11.918;2024-02-26T01:41:47;7.05;;;3.35;;
43048;SDS011;28673;44.412;11.918;2024-02-26T01:44:13;5.28;;;3.45;;
43048;SDS011;28673;44.412;11.918;2024-02-26T01:46:39;11.63;;;3.97;;
43048;SDS011;28673;44.412;11.918;2024-02-26T01:49:05;5.82;;;3.90;;
43048;SDS011;28673;44.412;11.918;2024-02-26T01:51:32;9.32;;;4.28;;
43048;SDS011;28673;44.412;11.918;2024-02-26T01:53:59;5.25;;;3.70;;
43048;SDS011;28673;44.412;11.918;2024-02-26T01:56:27;9.10;;;4.32;;
43048;SDS011;28673;44.412;11.918;2024-02-26T01:58:57;6.53;;;3.83;;
43048;SDS011;28673;44.412;11.918;2024-02-26T02:01:26;7.60;;;3.60;;
43048;SDS011;28673;44.412;11.918;2024-02-26T02:03:58;5.65;;;3.83;;
43048;SDS011;28673;44.412;11.918;2024-02-26T02:06:25;8.82;;;4.65;;
43048;SDS011;28673;44.412;11.918;2024-02-26T02:08:52;10.07;;;3.90;;
43048;SDS011;28673;44.412;11.918;2024-02-26T02:11:19;6.28;;;3.22;;
43048;SDS011;28673;44.412;11.918;2024-02-26T02:13:44;6.07;;;4.07;;
43048;SDS011;28673;44.412;11.918;2024-02-26T02:16:10;10.18;;;3.85;;
43048;SDS011;28673;44.412;11.918;2024-02-26T02:18:36;7.80;;;4.25;;
43048;SDS011;28673;44.412;11.918;2024-02-26T02:21:02;5.10;;;3.95;;
43048;SDS011;28673;44.412;11.918;2024-02-26T02:23:28;4.78;;;3.28;;
43048;SDS011;28673;44.412;11.918;2024-02-26T02:25:54;6.38;;;3.50;;
43048;SDS011;28673;44.412;11.918;2024-02-26T02:28:23;4.80;;;3.75;;
43048;SDS011;28673;44.412;11.918;2024-02-26T02:30:50;4.43;;;2.72;;
43048;SDS011;28673;44.412;11.918;2024-02-26T02:33:16;5.03;;;3.20;;
43048;SDS011;28673;44.412;11.918;2024-02-26T02:35:42;6.25;;;3.60;;
43048;SDS011;28673;44.412;11.918;2024-02-26T02:38:08;5.10;;;3.28;;
43048;SDS011;28673;44.412;11.918;2024-02-26T02:40:34;5.28;;;3.15;;
43048;SDS011;28673;44.412;11.918;2024-02-26T02:42:59;6.32;;;3.20;;
43048;SDS011;28673;44.412;11.918;2024-02-26T02:45:27;6.55;;;3.70;;
43048;SDS011;28673;44.412;11.918;2024-02-26T02:47:53;4.28;;;3.40;;
43048;SDS011;28673;44.412;11.918;2024-02-26T02:50:19;7.40;;;3.45;;
43048;SDS011;28673;44.412;11.918;2024-02-26T02:52:44;5.55;;;3.28;;
43048;SDS011;28673;44.412;11.918;2024-02-26T02:55:10;6.28;;;3.30;;
43048;SDS011;28673;44.412;11.918;2024-02-26T02:57:36;5.50;;;3.28;;
43048;SDS011;28673;44.412;11.918;2024-02-26T03:00:09;6.10;;;3.80;;
43048;SDS011;28673;44.412;11.918;2024-02-26T03:02:35;11.32;;;3.83;;
43048;SDS011;28673;44.412;11.918;2024-02-26T03:05:02;5.72;;;3.08;;
43048;SDS011;28673;44.412;11.918;2024-02-26T03:07:31;6.97;;;2.80;;
43048;SDS011;28673;44.412;11.918;2024-02-26T03:09:57;3.28;;;2.45;;
43048;SDS011;28673;44.412;11.918;2024-02-26T03:12:23;3.35;;;2.33;;
43048;SDS011;28673;44.412;11.918;2024-02-26T03:14:48;5.97;;;3.92;;
43048;SDS011;28673;44.412;11.918;2024-02-26T03:17:14;6.20;;;3.72;;
43048;SDS011;28673;44.412;11.918;2024-02-26T03:19:40;4.35;;;2.85;;
43048;SDS011;28673;44.412;11.918;2024-02-26T03:22:06;3.55;;;2.50;;
43048;SDS011;28673;44.412;11.918;2024-02-26T03:24:32;3.38;;;2.42;;
43048;SDS011;28673;44.412;11.918;2024-02-26T03:26:58;3.70;;;2.78;;
43048;SDS011;28673;44.412;11.918;2024-02-26T03:29:24;5.80;;;2.40;;
43048;SDS011;28673;44.412;11.918;2024-02-26T03:31:50;3.10;;;2.20;;
43048;SDS011;28673;44.412;11.918;2024-02-26T03:34:15;4.95;;;3.00;;
43048;SDS011;28673;44.412;11.918;2024-02-26T03:36:42;4.40;;;3.25;;
43048;SDS011;28673;44.412;11.918;2024-02-26T03:39:08;6.03;;;4.30;;
43048;SDS011;28673;44.412;11.918;2024-02-26T03:41:34;5.60;;;3.28;;
43048;SDS011;28673;44.412;11.918;2024-02-26T03:44:00;5.10;;;3.45;;
43048;SDS011;28673;44.412;11.918;2024-02-26T03:46:26;5.85;;;4.10;;
43048;SDS011;28673;44.412;11.918;2024-02-26T03:48:52;8.80;;;3.45;;
43048;SDS011;28673;44.412;11.918;2024-02-26T03:51:18;3.55;;;2.88;;
43048;SDS011;28673;44.412;11.918;2024-02-26T03:53:44;4.40;;;2.97;;
43048;SDS011;28673;44.412;11.918;2024-02-26T03:56:11;3.67;;;2.65;;
43048;SDS011;28673;44.412;11.918;2024-02-26T03:58:38;4.38;;;2.83;;
43048;SDS011;28673;44.412;11.918;2024-02-26T04:01:04;4.88;;;2.92;;
43048;SDS011;28673;44.412;11.918;2024-02-26T04:03:32;6.30;;;3.20;;
43048;SDS011;28673;44.412;11.918;2024-02-26T04:05:58;4.55;;;2.80;;
43048;SDS011;28673;44.412;11.918;2024-02-26T04:08:23;4.25;;;1.90;;
43048;SDS011;28673;44.412;11.918;2024-02-26T04:10:49;7.90;;;2.97;;
43048;SDS011;28673;44.412;11.918;2024-02-26T04:13:15;3.90;;;2.97;;
43048;SDS011;28673;44.412;11.918;2024-02-26T04:15:40;4.82;;;2.40;;
43048;SDS011;28673;44.412;11.918;2024-02-26T04:18:06;4.10;;;2.80;;
43048;SDS011;28673;44.412;11.918;2024-02-26T04:20:32;4.57;;;3.10;;
43048;SDS011;28673;44.412;11.918;2024-02-26T04:22:58;2.75;;;1.92;;
43048;SDS011;28673;44.412;11.918;2024-02-26T04:25:23;9.88;;;2.88;;
43048;SDS011;28673;44.412;11.918;2024-02-26T04:27:49;3.83;;;2.33;;
43048;SDS011;28673;44.412;11.918;2024-02-26T04:30:15;3.20;;;2.22;;
43048;SDS011;28673;44.412;11.918;2024-02-26T04:32:42;4.13;;;2.42;;
43048;SDS011;28673;44.412;11.918;2024-02-26T04:35:08;3.90;;;2.58;;
43048;SDS011;28673;44.412;11.918;2024-02-26T04:37:34;4.10;;;2.47;;
43048;SDS011;28673;44.412;11.918;2024-02-26T04:39:59;2.03;;;1.83;;
43048;SDS011;28673;44.412;11.918;2024-02-26T04:42:26;2.40;;;1.85;;
43048;SDS011;28673;44.412;11.918;2024-02-26T04:44:52;7.15;;;2.30;;
43048;SDS011;28673;44.412;11.918;2024-02-26T04:47:18;3.40;;;1.95;;
43048;SDS011;28673;44.412;11.918;2024-02-26T04:49:43;3.30;;;1.98;;
43048;SDS011;28673;44.412;11.918;2024-02-26T04:52:09;9.43;;;2.00;;
43048;SDS011;28673;44.412;11.918;2024-02-26T04:54:35;2.70;;;2.10;;
43048;SDS011;28673;44.412;11.918;2024-02-26T04:57:01;2.78;;;1.60;;
43048;SDS011;28673;44.412;11.918;2024-02-26T04:59:26;8.18;;;3.00;;
43048;SDS011;28673;44.412;11.918;2024-02-26T05:01:52;4.13;;;2.63;;
43048;SDS011;28673;44.412;11.918;2024-02-26T05:04:18;4.40;;;2.88;;
43048;SDS011;28673;44.412;11.918;2024-02-26T05:06:44;5.32;;;3.20;;
43048;SDS011;28673;44.412;11.918;2024-02-26T05:09:09;9.55;;;3.45;;
43048;SDS011;28673;44.412;11.918;2024-02-26T05:11:35;4.45;;;3.38;;
43048;SDS011;28673;44.412;11.918;2024-02-26T05:14:01;5.57;;;2.63;;
43048;SDS011;28673;44.412;11.918;2024-02-26T05:16:27;5.28;;;2.95;;
43048;SDS011;28673;44.412;11.918;2024-02-26T05:18:53;10.80;;;2.60;;
43048;SDS011;28673;44.412;11.918;2024-02-26T05:21:18;8.27;;;2.50;;
43048;SDS011;28673;44.412;11.918;2024-02-26T05:23:44;4.75;;;2.60;;
43048;SDS011;28673;44.412;11.918;2024-02-26T05:26:10;4.00;;;2.30;;
43048;SDS011;28673;44.412;11.918;2024-02-26T05:28:36;4.20;;;2.25;;
43048;SDS011;28673;44.412;11.918;2024-02-26T05:31:04;4.05;;;2.65;;
43048;SDS011;28673;44.412;11.918;2024-02-26T05:33:30;5.88;;;3.30;;
43048;SDS011;28673;44.412;11.918;2024-02-26T05:35:56;3.97;;;2.92;;
43048;SDS011;28673;44.412;11.918;2024-02-26T05:38:22;3.45;;;2.38;;
43048;SDS011;28673;44.412;11.918;2024-02-26T05:40:48;4.90;;;3.17;;
43048;SDS011;28673;44.412;11.918;2024-02-26T05:43:13;6.05;;;3.78;;
43048;SDS011;28673;44.412;11.918;2024-02-26T05:45:42;6.68;;;4.07;;
43048;SDS011;28673;44.412;11.918;2024-02-26T05:48:08;6.43;;;4.25;;
43048;SDS011;28673;44.412;11.918;2024-02-26T05:50:33;5.32;;;3.03;;
43048;SDS011;28673;44.412;11.918;2024-02-26T05:52:59;10.85;;;4.35;;
43048;SDS011;28673;44.412;11.918;2024-02-26T05:55:25;5.05;;;2.58;;
43048;SDS011;28673;44.412;11.918;2024-02-26T05:57:51;5.70;;;3.15;;
43048;SDS011;28673;44.412;11.918;2024-02-26T06:00:17;6.80;;;3.63;;
43048;SDS011;28673;44.412;11.918;2024-02-26T06:02:43;21.08;;;6.03;;
43048;SDS011;28673;44.412;11.918;2024-02-26T06:05:09;10.40;;;4.45;;
43048;SDS011;28673;44.412;11.918;2024-02-26T06:07:35;6.63;;;3.95;;
43048;SDS011;28673;44.412;11.918;2024-02-26T06:10:01;7.18;;;4.22;;
43048;SDS011;28673;44.412;11.918;2024-02-26T06:12:28;13.30;;;4.78;;
43048;SDS011;28673;44.412;11.918;2024-02-26T06:14:55;18.48;;;5.88;;
43048;SDS011;28673;44.412;11.918;2024-02-26T06:17:22;11.13;;;5.15;;
43048;SDS011;28673;44.412;11.918;2024-02-26T06:19:47;8.57;;;5.22;;
43048;SDS011;28673;44.412;11.918;2024-02-26T06:22:13;9.48;;;4.30;;
43048;SDS011;28673;44.412;11.918;2024-02-26T06:24:39;8.38;;;4.63;;
43048;SDS011;28673;44.412;11.918;2024-02-26T06:27:05;9.95;;;4.22;;
43048;SDS011;28673;44.412;11.918;2024-02-26T06:29:31;6.90;;;4.22;;
43048;SDS011;28673;44.412;11.918;2024-02-26T06:31:56;3.90;;;3.17;;
43048;SDS011;28673;44.412;11.918;2024-02-26T06:34:22;6.32;;;4.35;;
43048;SDS011;28673;44.412;11.918;2024-02-26T06:36:48;5.47;;;3.20;;
43048;SDS011;28673;44.412;11.918;2024-02-26T06:39:13;9.18;;;3.13;;
43048;SDS011;28673;44.412;11.918;2024-02-26T06:41:41;5.90;;;3.58;;
43048;SDS011;28673;44.412;11.918;2024-02-26T06:44:06;4.97;;;2.95;;
43048;SDS011;28673;44.412;11.918;2024-02-26T06:46:32;7.28;;;3.35;;
43048;SDS011;28673;44.412;11.918;2024-02-26T06:48:58;4.30;;;2.22;;
43048;SDS011;28673;44.412;11.918;2024-02-26T06:51:24;11.38;;;2.75;;
43048;SDS011;28673;44.412;11.918;2024-02-26T06:53:50;7.13;;;2.28;;
43048;SDS011;28673;44.412;11.918;2024-02-26T06:56:16;2.90;;;2.13;;
43048;SDS011;28673;44.412;11.918;2024-02-26T06:58:41;2.28;;;1.80;;
43048;SDS011;28673;44.412;11.918;2024-02-26T07:01:07;5.60;;;2.65;;
43048;SDS011;28673;44.412;11.918;2024-02-26T07:03:35;6.63;;;3.45;;
43048;SDS011;28673;44.412;11.918;2024-02-26T07:06:01;4.78;;;2.53;;
43048;SDS011;28673;44.412;11.918;2024-02-26T07:08:27;3.83;;;2.80;;
43048;SDS011;28673;44.412;11.918;2024-02-26T07:10:53;5.32;;;3.60;;
43048;SDS011;28673;44.412;11.918;2024-02-26T07:13:19;6.78;;;3.65;;
43048;SDS011;28673;44.412;11.918;2024-02-26T07:15:46;5.90;;;3.15;;
43048;SDS011;28673;44.412;11.918;2024-02-26T07:18:11;8.70;;;4.10;;
43048;SDS011;28673;44.412;11.918;2024-02-26T07:20:37;5.15;;;3.05;;
43048;SDS011;28673;44.412;11.918;2024-02-26T07:23:03;20.08;;;8.30;;
43048;SDS011;28673;44.412;11.918;2024-02-26T07:25:29;29.42;;;9.35;;
43048;SDS011;28673;44.412;11.918;2024-02-26T07:27:54;25.77;;;9.18;;
43048;SDS011;28673;44.412;11.918;2024-02-26T07:30:20;25.02;;;10.43;;
43048;SDS011;28673;44.412;11.918;2024-02-26T07:32:46;55.10;;;19.92;;
43048;SDS011;28673;44.412;11.918;2024-02-26T07:35:11;67.97;;;26.88;;
43048;SDS011;28673;44.412;11.918;2024-02-26T07:37:37;112.38;;;44.58;;
43048;SDS011;28673;44.412;11.918;2024-02-26T07:40:03;101.03;;;47.70;;
43048;SDS011;28673;44.412;11.918;2024-02-26T07:42:34;92.32;;;42.08;;
43048;SDS011;28673;44.412;11.918;2024-02-26T07:44:59;69.22;;;32.55;;
43048;SDS011;28673;44.412;11.918;2024-02-26T07:47:25;82.53;;;34.65;;
43048;SDS011;28673;44.412;11.918;2024-02-26T07:49:51;59.35;;;28.55;;
43048;SDS011;28673;44.412;11.918;2024-02-26T07:52:16;54.17;;;25.23;;
43048;SDS011;28673;44.412;11.918;2024-02-26T07:54:42;62.40;;;29.00;;
43048;SDS011;28673;44.412;11.918;2024-02-26T07:57:08;83.45;;;41.88;;
43048;SDS011;28673;44.412;11.918;2024-02-26T07:59:34;61.05;;;31.30;;
43048;SDS011;28673;44.412;11.918;2024-02-26T08:01:59;62.78;;;31.15;;
43048;SDS011;28673;44.412;11.918;2024-02-26T08:04:28;36.25;;;19.23;;
43048;SDS011;28673;44.412;11.918;2024-02-26T08:06:54;33.45;;;18.13;;
43048;SDS011;28673;44.412;11.918;2024-02-26T08:09:20;28.60;;;15.15;;
43048;SDS011;28673;44.412;11.918;2024-02-26T08:11:45;35.50;;;14.57;;
43048;SDS011;28673;44.412;11.918;2024-02-26T08:14:11;35.78;;;17.17;;
43048;SDS011;28673;44.412;11.918;2024-02-26T08:16:37;35.53;;;18.58;;
43048;SDS011;28673;44.412;11.918;2024-02-26T08:19:03;22.00;;;13.50;;
43048;SDS011;28673;44.412;11.918;2024-02-26T08:21:29;20.13;;;14.27;;
43048;SDS011;28673;44.412;11.918;2024-02-26T08:23:55;20.10;;;10.98;;
43048;SDS011;28673;44.412;11.918;2024-02-26T08:26:20;17.15;;;8.85;;
43048;SDS011;28673;44.412;11.918;2024-02-26T08:28:47;9.95;;;6.78;;
43048;SDS011;28673;44.412;11.918;2024-02-26T08:31:14;23.35;;;9.00;;
43048;SDS011;28673;44.412;11.918;2024-02-26T08:33:40;14.23;;;8.25;;
43048;SDS011;28673;44.412;11.918;2024-02-26T08:36:06;16.85;;;7.00;;
43048;SDS011;28673;44.412;11.918;2024-02-26T08:38:32;14.00;;;7.25;;
43048;SDS011;28673;44.412;11.918;2024-02-26T08:41:00;9.45;;;5.85;;
43048;SDS011;28673;44.412;11.918;2024-02-26T08:43:30;13.30;;;4.13;;
43048;SDS011;28673;44.412;11.918;2024-02-26T08:45:56;10.88;;;5.78;;
43048;SDS011;28673;44.412;11.918;2024-02-26T08:48:22;19.35;;;4.30;;
43048;SDS011;28673;44.412;11.918;2024-02-26T08:50:49;6.93;;;3.60;;
43048;SDS011;28673;44.412;11.918;2024-02-26T08:53:14;5.95;;;3.47;;
43048;SDS011;28673;44.412;11.918;2024-02-26T08:55:40;10.60;;;4.40;;
43048;SDS011;28673;44.412;11.918;2024-02-26T08:58:06;9.32;;;4.43;;
43048;SDS011;28673;44.412;11.918;2024-02-26T09:00:31;7.55;;;3.92;;
43048;SDS011;28673;44.412;11.918;2024-02-26T09:02:57;10.85;;;4.45;;
43048;SDS011;28673;44.412;11.918;2024-02-26T09:05:23;8.60;;;4.82;;
43048;SDS011;28673;44.412;11.918;2024-02-26T09:07:49;9.27;;;4.32;;
43048;SDS011;28673;44.412;11.918;2024-02-26T09:10:17;11.68;;;4.63;;
43048;SDS011;28673;44.412;11.918;2024-02-26T09:12:42;10.65;;;4.70;;
43048;SDS011;28673;44.412;11.918;2024-02-26T09:15:08;9.88;;;4.10;;
43048;SDS011;28673;44.412;11.918;2024-02-26T09:17:34;8.10;;;4.38;;
43048;SDS011;28673;44.412;11.918;2024-02-26T09:20:00;9.70;;;5.13;;
43048;SDS011;28673;44.412;11.918;2024-02-26T09:22:26;9.32;;;3.78;;
43048;SDS011;28673;44.412;11.918;2024-02-26T09:24:52;22.17;;;9.18;;
43048;SDS011;28673;44.412;11.918;2024-02-26T09:27:18;43.95;;;17.00;;
43048;SDS011;28673;44.412;11.918;2024-02-26T09:29:44;100.00;;;37.97;;
43048;SDS011;28673;44.412;11.918;2024-02-26T09:32:10;126.13;;;54.70;;
43048;SDS011;28673;44.412;11.918;2024-02-26T09:34:36;70.78;;;30.75;;
43048;SDS011;28673;44.412;11.918;2024-02-26T09:37:02;29.08;;;14.82;;
43048;SDS011;28673;44.412;11.918;2024-02-26T09:39:27;26.92;;;11.43;;
43048;SDS011;28673;44.412;11.918;2024-02-26T09:41:53;17.95;;;7.20;;
43048;SDS011;28673;44.412;11.918;2024-02-26T09:44:20;12.02;;;6.97;;
43048;SDS011;28673;44.412;11.918;2024-02-26T09:46:48;6.63;;;4.30;;
43048;SDS011;28673;44.412;11.918;2024-02-26T09:49:18;11.32;;;4.65;;
43048;SDS011;28673;44.412;11.918;2024-02-26T09:51:45;15.45;;;5.50;;
43048;SDS011;28673;44.412;11.918;2024-02-26T09:54:14;13.63;;;4.80;;
43048;SDS011;28673;44.412;11.918;2024-02-26T09:56:41;9.10;;;5.03;;
43048;SDS011;28673;44.412;11.918;2024-02-26T09:59:13;9.25;;;4.75;;
43048;SDS011;28673;44.412;11.918;2024-02-26T10:01:41;10.43;;;5.05;;
43048;SDS011;28673;44.412;11.918;2024-02-26T10:04:08;10.07;;;5.57;;
43048;SDS011;28673;44.412;11.918;2024-02-26T10:06:35;14.68;;;6.15;;
43048;SDS011;28673;44.412;11.918;2024-02-26T10:09:02;8.15;;;5.18;;
43048;SDS011;28673;44.412;11.918;2024-02-26T10:11:31;7.57;;;4.97;;
43048;SDS011;28673;44.412;11.918;2024-02-26T10:13:57;13.75;;;6.80;;
43048;SDS011;28673;44.412;11.918;2024-02-26T10:16:26;11.40;;;5.40;;
43048;SDS011;28673;44.412;11.918;2024-02-26T10:18:53;13.77;;;7.45;;
43048;SDS011;28673;44.412;11.918;2024-02-26T10:21:19;9.95;;;5.57;;
43048;SDS011;28673;44.412;11.918;2024-02-26T10:23:46;9.75;;;5.32;;
43048;SDS011;28673;44.412;11.918;2024-02-26T10:26:18;12.95;;;6.05;;
43048;SDS011;28673;44.412;11.918;2024-02-26T10:28:44;13.02;;;5.18;;
43048;SDS011;28673;44.412;11.918;2024-02-26T10:31:11;9.05;;;4.60;;
43048;SDS011;28673;44.412;11.918;2024-02-26T10:33:38;6.03;;;3.95;;
43048;SDS011;28673;44.412;11.918;2024-02-26T10:36:05;6.38;;;2.97;;
43048;SDS011;28673;44.412;11.918;2024-02-26T10:38:32;11.65;;;3.65;;
43048;SDS011;28673;44.412;11.918;2024-02-26T10:40:59;8.55;;;3.15;;
43048;SDS011;28673;44.412;11.918;2024-02-26T10:43:26;12.30;;;2.97;;
43048;SDS011;28673;44.412;11.918;2024-02-26T10:45:52;11.05;;;5.15;;
43048;SDS011;28673;44.412;11.918;2024-02-26T10:48:19;5.80;;;2.95;;
43048;SDS011;28673;44.412;11.918;2024-02-26T10:50:45;4.15;;;2.85;;
43048;SDS011;28673;44.412;11.918;2024-02-26T10:53:16;14.00;;;6.45;;
43048;SDS011;28673;44.412;11.918;2024-02-26T10:55:49;62.83;;;24.23;;
43048;SDS011;28673;44.412;11.918;2024-02-26T10:58:21;17.85;;;9.10;;
43048;SDS011;28673;44.412;11.918;2024-02-26T11:00:49;5.60;;;2.50;;
43048;SDS011;28673;44.412;11.918;2024-02-26T11:03:15;7.10;;;2.47;;
43048;SDS011;28673;44.412;11.918;2024-02-26T11:05:45;3.47;;;2.17;;
43048;SDS011;28673;44.412;11.918;2024-02-26T11:08:15;9.70;;;2.30;;
43048;SDS011;28673;44.412;11.918;2024-02-26T11:10:50;11.85;;;2.35;;
43048;SDS011;28673;44.412;11.918;2024-02-26T11:13:18;3.47;;;1.73;;
43048;SDS011;28673;44.412;11.918;2024-02-26T11:15:49;7.82;;;1.52;;
43048;SDS011;28673;44.412;11.918;2024-02-26T11:18:16;3.10;;;1.98;;
43048;SDS011;28673;44.412;11.918;2024-02-26T11:20:44;3.42;;;1.88;;
43048;SDS011;28673;44.412;11.918;2024-02-26T11:23:11;2.85;;;1.40;;
43048;SDS011;28673;44.412;11.918;2024-02-26T11:25:40;3.40;;;1.52;;
43048;SDS011;28673;44.412;11.918;2024-02-26T11:28:09;6.55;;;2.30;;
43048;SDS011;28673;44.412;11.918;2024-02-26T11:30:43;4.10;;;2.10;;
43048;SDS011;28673;44.412;11.918;2024-02-26T11:33:11;4.45;;;2.28;;
43048;SDS011;28673;44.412;11.918;2024-02-26T11:35:41;7.30;;;2.65;;
43048;SDS011;28673;44.412;11.918;2024-02-26T11:38:07;5.07;;;2.22;;
43048;SDS011;28673;44.412;11.918;2024-02-26T11:40:33;9.13;;;2.90;;
43048;SDS011;28673;44.412;11.918;2024-02-26T11:43:07;3.50;;;2.58;;
43048;SDS011;28673;44.412;11.918;2024-02-26T11:48:11;3.13;;;2.30;;
43048;SDS011;28673;44.412;11.918;2024-02-26T11:50:45;4.20;;;1.88;;
43048;SDS011;28673;44.412;11.918;2024-02-26T11:56:34;3.53;;;2.17;;
43048;SDS011;28673;44.412;11.918;2024-02-26T11:58:40;4.68;;;2.33;;
43048;SDS011;28673;44.412;11.918;2024-02-26T12:04:14;4.03;;;2.30;;
43048;SDS011;28673;44.412;11.918;2024-02-26T12:06:58;4.03;;;1.77;;
43048;SDS011;28673;44.412;11.918;2024-02-26T12:09:31;4.30;;;1.77;;
43048;SDS011;28673;44.412;11.918;2024-02-26T12:11:57;4.95;;;2.10;;
43048;SDS011;28673;44.412;11.918;2024-02-26T12:14:26;3.40;;;2.08;;
43048;SDS011;28673;44.412;11.918;2024-02-26T12:16:52;2.90;;;1.88;;
43048;SDS011;28673;44.412;11.918;2024-02-26T12:19:20;2.75;;;1.50;;
43048;SDS011;28673;44.412;11.918;2024-02-26T12:21:48;2.25;;;1.40;;
43048;SDS011;28673;44.412;11.918;2024-02-26T12:24:17;1.53;;;0.93;;
43048;SDS011;28673;44.412;11.918;2024-02-26T12:26:45;1.80;;;0.90;;
43048;SDS011;28673;44.412;11.918;2024-02-26T12:29:10;1.48;;;1.10;;
43048;SDS011;28673;44.412;11.918;2024-02-26T12:31:36;2.38;;;1.10;;
43048;SDS011;28673;44.412;11.918;2024-02-26T12:34:04;1.88;;;1.20;;
43048;SDS011;28673;44.412;11.918;2024-02-26T12:36:30;3.42;;;2.00;;
43048;SDS011;28673;44.412;11.918;2024-02-26T12:38:57;3.45;;;1.65;;
43048;SDS011;28673;44.412;11.918;2024-02-26T12:41:23;2.78;;;1.80;;
43048;SDS011;28673;44.412;11.918;2024-02-26T12:43:50;4.10;;;1.50;;
43048;SDS011;28673;44.412;11.918;2024-02-26T12:46:15;8.32;;;1.75;;
43048;SDS011;28673;44.412;11.918;2024-02-26T12:48:46;4.20;;;2.22;;
43048;SDS011;28673;44.412;11.918;2024-02-26T12:51:12;2.92;;;2.05;;
43048;SDS011;28673;44.412;11.918;2024-02-26T12:53:44;5.80;;;2.25;;
43048;SDS011;28673;44.412;11.918;2024-02-26T12:56:11;4.55;;;2.45;;
43048;SDS011;28673;44.412;11.918;2024-02-26T12:58:39;4.85;;;3.33;;
43048;SDS011;28673;44.412;11.918;2024-02-26T13:01:06;4.32;;;2.10;;
43048;SDS011;28673;44.412;11.918;2024-02-26T13:03:36;4.22;;;2.40;;
43048;SDS011;28673;44.412;11.918;2024-02-26T13:06:02;6.70;;;2.20;;
43048;SDS011;28673;44.412;11.918;2024-02-26T13:08:31;5.65;;;2.75;;
43048;SDS011;28673;44.412;11.918;2024-02-26T13:10:59;7.32;;;2.65;;
43048;SDS011;28673;44.412;11.918;2024-02-26T13:13:25;3.92;;;2.47;;
43048;SDS011;28673;44.412;11.918;2024-02-26T13:16:01;5.38;;;2.80;;
43048;SDS011;28673;44.412;11.918;2024-02-26T13:18:31;3.57;;;2.73;;
43048;SDS011;28673;44.412;11.918;2024-02-26T13:21:11;4.70;;;2.83;;
43048;SDS011;28673;44.412;11.918;2024-02-26T13:23:41;4.07;;;2.30;;
43048;SDS011;28673;44.412;11.918;2024-02-26T13:26:08;8.15;;;2.30;;
43048;SDS011;28673;44.412;11.918;2024-02-26T13:28:37;5.07;;;3.20;;
43048;SDS011;28673;44.412;11.918;2024-02-26T13:31:03;3.88;;;2.33;;
43048;SDS011;28673;44.412;11.918;2024-02-26T13:33:32;8.00;;;3.00;;
43048;SDS011;28673;44.412;11.918;2024-02-26T13:35:59;4.60;;;2.88;;
43048;SDS011;28673;44.412;11.918;2024-02-26T13:38:25;7.05;;;2.97;;
43048;SDS011;28673;44.412;11.918;2024-02-26T13:40:52;5.53;;;2.50;;
43048;SDS011;28673;44.412;11.918;2024-02-26T13:43:18;5.85;;;2.95;;
43048;SDS011;28673;44.412;11.918;2024-02-26T13:45:44;4.32;;;2.70;;
43048;SDS011;28673;44.412;11.918;2024-02-26T13:48:11;5.05;;;2.60;;
43048;SDS011;28673;44.412;11.918;2024-02-26T13:50:41;5.65;;;3.00;;
43048;SDS011;28673;44.412;11.918;2024-02-26T13:53:10;8.40;;;3.63;;
43048;SDS011;28673;44.412;11.918;2024-02-26T13:55:37;12.77;;;2.63;;
43048;SDS011;28673;44.412;11.918;2024-02-26T13:58:05;4.20;;;2.33;;
43048;SDS011;28673;44.412;11.918;2024-02-26T14:00:32;5.03;;;2.33;;
43048;SDS011;28673;44.412;11.918;2024-02-26T14:03:02;7.03;;;2.42;;
43048;SDS011;28673;44.412;11.918;2024-02-26T14:05:28;2.60;;;1.92;;
43048;SDS011;28673;44.412;11.918;2024-02-26T14:07:54;8.70;;;2.38;;
43048;SDS011;28673;44.412;11.918;2024-02-26T14:10:20;3.25;;;2.00;;
43048;SDS011;28673;44.412;11.918;2024-02-26T14:12:46;4.28;;;1.92;;
43048;SDS011;28673;44.412;11.918;2024-02-26T14:15:12;8.10;;;2.90;;
43048;SDS011;28673;44.412;11.918;2024-02-26T14:17:38;3.08;;;1.88;;
43048;SDS011;28673;44.412;11.918;2024-02-26T14:20:04;7.53;;;2.20;;
43048;SDS011;28673;44.412;11.918;2024-02-26T14:22:30;6.82;;;2.45;;
43048;SDS011;28673;44.412;11.918;2024-02-26T14:24:56;7.20;;;2.13;;
43048;SDS011;28673;44.412;11.918;2024-02-26T14:27:22;4.35;;;2.80;;
43048;SDS011;28673;44.412;11.918;2024-02-26T14:29:48;5.53;;;3.22;;
43048;SDS011;28673;44.412;11.918;2024-02-26T14:32:14;5.80;;;2.97;;
43048;SDS011;28673;44.412;11.918;2024-02-26T14:34:40;6.05;;;2.88;;
43048;SDS011;28673;44.412;11.918;2024-02-26T14:37:06;9.50;;;3.33;;